Decoded Metar for LPBJ (BEJA in PORTUGAL) (IATA:N/A) | Meteo·Mobile Aviation Weather
aviador You're here:

LPBJ Decoded Metar

BEJA in PORTUGAL
Report Time2018-09-21 10:00:00
UTC Time2018-09-21 10:14:45
Flight Rules vfr VFR
Wind360° at 08 kt
W.Decomp.*RWY 01: 7.9 kt HW 1 kt LCW
Visibility9999 m
Phenomena:N/A
Clouds:N/A
Expected CloudBase > 4,000 ft AGL from Temp-Dew spread
CeilingNone
Temp24°C (ISA +11)
Dew Point14°C (54% RH)
AAT22.4°C
QNH1021 hPa
Density Alt1,988 ft
Elevation810 ft
Report Wrong Elevation
Raw Report
METAR LPBJ 211000Z 36008KT CAVOK 24/14 Q1021=

Extra information for LPBJ:More info

Metar Taf Metar & Taf Last 4 Metars F.Rules Stats Wind Profile Meteogram Temp Stats Airport Information Weather charts Add Link Nearby VenuesMetar ALERT Operation Metar Decoded Social comments